Time;durP1;ratioP1;P1;durP2;ratioP2;P2;SDS_P1;SDS_P2;PMS_P1;PMS_P2;Temp;Humidity;BMP_temperature;BMP_pressure;BME280_temperature;BME280_humidity;BME280_pressure;Samples;Min_cycle;Max_cycle;Signal;HPM_P1;HPM_P2
2022/01/11 00:00:35;;;;;;;6.30;4.90;;;19.90;58.50;;;;;;4952189;28;89162;-85
2022/01/11 00:03:01;;;;;;;7.95;5.85;;;19.90;58.50;;;;;;4934177;28;91324;-82
2022/01/11 00:05:32;;;;;;;6.03;5.18;;;19.90;58.50;;;;;;4952286;28;87317;-80
2022/01/11 00:07:58;;;;;;;6.80;5.22;;;19.90;58.40;;;;;;4934242;28;89131;-80
2022/01/11 00:10:30;;;;;;;7.53;5.15;;;19.90;58.40;;;;;;4951243;28;87450;-85
2022/01/11 00:12:57;;;;;;;6.55;5.40;;;19.90;58.30;;;;;;4949811;28;87739;-82
2022/01/11 00:15:23;;;;;;;6.72;5.20;;;19.90;58.20;;;;;;4950750;28;87568;-82
2022/01/11 00:17:50;;;;;;;7.15;5.40;;;19.80;58.30;;;;;;4950988;28;86614;-84
2022/01/11 00:20:17;;;;;;;6.25;5.38;;;19.80;58.20;;;;;;4951245;28;88124;-81
2022/01/11 00:25:23;;;;;;;7.00;5.32;;;19.80;58.10;;;;;;4949793;28;87992;-83
2022/01/11 00:27:49;;;;;;;5.75;5.10;;;19.80;57.90;;;;;;4950232;28;87296;-79
2022/01/11 00:30:14;;;;;;;8.23;5.63;;;19.80;57.90;;;;;;4950376;28;88063;-85
2022/01/11 00:32:46;;;;;;;7.47;5.47;;;19.80;58.00;;;;;;4950469;28;87472;-79
2022/01/11 00:35:15;;;;;;;6.15;5.18;;;19.80;58.00;;;;;;4951461;28;87790;-79
2022/01/11 00:37:41;;;;;;;7.35;5.55;;;19.70;57.90;;;;;;4951332;28;87887;-79
2022/01/11 00:40:08;;;;;;;7.00;5.43;;;19.70;57.90;;;;;;4932745;28;90257;-83
2022/01/11 00:42:34;;;;;;;5.95;5.22;;;19.80;58.00;;;;;;4951204;28;87385;-82
2022/01/11 00:45:05;;;;;;;6.90;5.63;;;19.80;57.80;;;;;;4951866;28;87459;-85
2022/01/11 00:47:30;;;;;;;6.93;5.70;;;19.80;57.70;;;;;;4951467;28;87309;-81
2022/01/11 00:49:56;;;;;;;8.15;5.88;;;19.80;57.70;;;;;;4950348;28;89091;-84
2022/01/11 00:52:22;;;;;;;6.95;5.05;;;19.70;57.60;;;;;;4950403;28;89739;-81
2022/01/11 00:54:47;;;;;;;6.20;5.03;;;19.70;57.70;;;;;;4950947;28;87045;-79
2022/01/11 00:57:13;;;;;;;6.57;5.70;;;19.70;57.60;;;;;;4932814;28;89520;-80
2022/01/11 00:59:40;;;;;;;6.50;5.38;;;19.70;57.60;;;;;;4951416;28;87832;-81
2022/01/11 01:02:06;;;;;;;5.80;5.20;;;19.70;57.60;;;;;;4933009;28;91030;-80
2022/01/11 01:04:32;;;;;;;6.65;5.30;;;19.60;57.60;;;;;;4950406;28;87344;-83
2022/01/11 01:06:58;;;;;;;5.43;4.68;;;19.60;57.70;;;;;;4951155;28;86928;-83
2022/01/11 01:09:29;;;;;;;6.70;5.50;;;19.60;57.50;;;;;;4950766;28;88399;-80
2022/01/11 01:11:54;;;;;;;5.65;5.05;;;19.70;57.50;;;;;;4950791;28;87863;-82
2022/01/11 01:14:21;;;;;;;6.68;5.35;;;19.60;57.50;;;;;;4950518;28;88841;-81
2022/01/11 01:16:47;;;;;;;5.93;5.28;;;19.70;57.50;;;;;;4949778;28;87865;-79
2022/01/11 01:19:13;;;;;;;5.95;5.22;;;19.60;57.40;;;;;;4948644;28;90828;-81
2022/01/11 01:21:39;;;;;;;6.57;5.30;;;19.70;57.40;;;;;;4950674;28;87989;-80
2022/01/11 01:24:07;;;;;;;5.53;4.85;;;19.60;57.40;;;;;;4950563;28;87817;-84
2022/01/11 01:26:34;;;;;;;5.85;5.00;;;19.60;57.40;;;;;;4950510;28;87806;-83
2022/01/11 01:29:00;;;;;;;6.65;5.18;;;19.60;57.40;;;;;;4949870;28;88590;-86
2022/01/11 01:31:29;;;;;;;5.78;4.90;;;19.60;57.30;;;;;;4949557;28;87208;-80
2022/01/11 01:33:56;;;;;;;6.15;5.00;;;19.60;57.30;;;;;;4949728;28;87841;-80
2022/01/11 01:36:22;;;;;;;6.32;5.40;;;19.60;57.30;;;;;;4949290;28;87175;-80
2022/01/11 01:38:48;;;;;;;7.22;5.97;;;19.50;57.30;;;;;;4948755;28;88908;-84
2022/01/11 01:41:21;;;;;;;6.45;5.10;;;19.60;57.20;;;;;;4949908;28;88064;-82
2022/01/11 01:43:50;;;;;;;5.80;5.07;;;19.60;57.30;;;;;;4950175;28;87732;-81
2022/01/11 01:46:17;;;;;;;6.70;5.43;;;19.50;57.10;;;;;;4932455;28;87825;-80
2022/01/11 01:48:43;;;;;;;5.90;5.05;;;19.50;57.10;;;;;;4932276;28;88949;-79
2022/01/11 01:51:10;;;;;;;5.45;4.90;;;19.50;57.10;;;;;;4950499;28;87690;-81
2022/01/11 01:53:39;;;;;;;6.88;4.90;;;19.50;57.10;;;;;;4950907;28;87423;-80
2022/01/11 01:56:06;;;;;;;6.78;5.68;;;19.50;57.10;;;;;;4949625;28;86948;-80
2022/01/11 01:58:31;;;;;;;6.25;5.00;;;19.50;57.00;;;;;;4949727;28;87399;-79
2022/01/11 02:01:02;;;;;;;5.95;5.30;;;19.50;56.90;;;;;;4949534;28;87926;-82
2022/01/11 02:03:31;;;;;;;6.60;5.40;;;19.40;56.90;;;;;;4949912;28;88849;-80
2022/01/11 02:05:58;;;;;;;6.30;5.67;;;19.50;57.00;;;;;;4949282;28;87255;-80
2022/01/11 02:08:25;;;;;;;6.47;5.80;;;19.50;57.00;;;;;;4950324;28;87551;-79
2022/01/11 02:10:52;;;;;;;5.90;5.30;;;19.50;57.00;;;;;;4950124;28;88146;-79
2022/01/11 02:13:24;;;;;;;7.60;5.70;;;19.40;56.80;;;;;;4950234;28;87461;-80
2022/01/11 02:15:51;;;;;;;7.00;5.38;;;19.50;56.90;;;;;;4931301;28;87885;-81
2022/01/11 02:18:22;;;;;;;5.45;4.72;;;19.50;57.00;;;;;;4949473;28;88059;-86
2022/01/11 02:20:50;;;;;;;6.03;4.97;;;19.40;56.80;;;;;;4950209;28;87446;-83
2022/01/11 02:23:18;;;;;;;5.93;5.13;;;19.40;56.90;;;;;;4949665;28;87637;-80
2022/01/11 02:25:44;;;;;;;5.60;5.00;;;19.40;56.90;;;;;;4948683;28;87751;-82
2022/01/11 02:28:13;;;;;;;6.05;5.20;;;19.40;57.50;;;;;;4931806;28;92005;-80
2022/01/11 02:30:39;;;;;;;7.07;5.53;;;19.40;56.90;;;;;;4948494;28;88676;-80
2022/01/11 02:33:10;;;;;;;5.80;5.18;;;19.40;56.80;;;;;;4948633;28;88122;-84
2022/01/11 02:35:36;;;;;;;6.28;5.30;;;19.40;56.80;;;;;;4951067;28;88002;-82
2022/01/11 02:38:02;;;;;;;5.97;5.38;;;19.40;56.70;;;;;;4952582;28;88314;-80
2022/01/11 02:40:27;;;;;;;6.00;5.15;;;19.40;56.80;;;;;;4952624;28;87940;-80
2022/01/11 02:42:53;;;;;;;6.18;5.22;;;19.40;56.70;;;;;;4948461;28;87411;-80
2022/01/11 02:45:23;;;;;;;6.93;5.32;;;19.40;56.80;;;;;;4952183;28;87154;-81
2022/01/11 02:47:51;;;;;;;6.20;5.53;;;19.30;56.70;;;;;;4951971;28;88378;-81
2022/01/11 02:50:19;;;;;;;6.03;5.10;;;19.30;56.60;;;;;;4952291;28;87704;-80
2022/01/11 02:52:44;;;;;;;5.63;5.05;;;19.30;56.50;;;;;;4952520;28;88789;-79
2022/01/11 02:55:13;;;;;;;6.38;5.30;;;19.30;56.40;;;;;;4952785;28;87918;-81
2022/01/11 02:57:39;;;;;;;5.63;5.05;;;19.30;56.50;;;;;;4952329;28;87179;-82
2022/01/11 03:00:13;;;;;;;6.22;5.20;;;19.30;56.60;;;;;;4952799;28;87469;-80
2022/01/11 03:02:39;;;;;;;5.75;5.13;;;19.30;56.50;;;;;;4950386;28;87577;-82
2022/01/11 03:05:10;;;;;;;6.38;5.68;;;19.30;56.40;;;;;;4951676;28;87957;-80
2022/01/11 03:07:36;;;;;;;5.30;4.80;;;19.30;56.40;;;;;;4951997;28;88364;-83
2022/01/11 03:10:32;;;;;;;6.00;5.40;;;19.30;56.40;;;;;;4951496;28;87142;-80
2022/01/11 03:13:00;;;;;;;6.43;5.68;;;19.30;56.40;;;;;;4952126;28;88022;-83
2022/01/11 03:15:25;;;;;;;6.00;4.82;;;19.30;56.40;;;;;;4951031;28;87719;-83
2022/01/11 03:17:51;;;;;;;5.40;4.90;;;19.20;56.40;;;;;;4950653;28;88896;-86
2022/01/11 03:20:16;;;;;;;5.93;5.32;;;19.20;56.40;;;;;;4951655;28;87604;-81
2022/01/11 03:22:42;;;;;;;6.80;5.00;;;19.20;56.30;;;;;;4952580;28;87484;-81
2022/01/11 03:25:09;;;;;;;5.78;4.97;;;19.20;56.20;;;;;;4952525;28;87703;-85
2022/01/11 03:27:35;;;;;;;5.72;5.18;;;19.20;56.20;;;;;;4950606;28;88182;-81
2022/01/11 03:30:00;;;;;;;6.28;4.90;;;19.20;56.20;;;;;;4934864;28;90582;-81
2022/01/11 03:32:26;;;;;;;5.35;4.85;;;19.20;56.30;;;;;;4952761;28;87824;-81
2022/01/11 03:34:52;;;;;;;5.68;5.07;;;19.20;56.20;;;;;;4951999;28;87048;-82
2022/01/11 03:37:20;;;;;;;6.00;5.40;;;19.20;56.20;;;;;;4951012;28;88261;-82
2022/01/11 03:39:47;;;;;;;6.68;5.28;;;19.20;56.10;;;;;;4951291;28;87437;-83
2022/01/11 03:42:13;;;;;;;5.28;4.78;;;19.20;56.20;;;;;;4952336;28;88879;-80
2022/01/11 03:44:39;;;;;;;6.43;5.43;;;19.20;56.10;;;;;;4951818;28;87692;-80
2022/01/11 03:47:12;;;;;;;5.70;5.05;;;19.10;56.10;;;;;;4950524;28;87598;-85
2022/01/11 03:49:38;;;;;;;5.25;4.75;;;19.10;56.10;;;;;;4951990;28;87522;-80
2022/01/11 03:52:04;;;;;;;5.47;4.97;;;19.10;56.10;;;;;;4933971;28;87092;-80
2022/01/11 03:54:43;;;;;;;6.38;5.40;;;19.10;56.10;;;;;;4951340;28;88716;-80
2022/01/11 03:57:09;;;;;;;6.10;5.00;;;19.10;56.10;;;;;;4951826;28;87672;-80
2022/01/11 03:59:35;;;;;;;5.72;5.13;;;19.10;55.90;;;;;;4951772;28;87579;-82
2022/01/11 04:02:01;;;;;;;5.70;4.90;;;19.10;56.10;;;;;;4951390;28;87956;-85
2022/01/11 04:04:26;;;;;;;5.57;5.07;;;19.10;56.00;;;;;;4951624;28;87799;-84
2022/01/11 04:06:52;;;;;;;5.47;4.95;;;19.10;56.10;;;;;;4950879;28;89140;-83
2022/01/11 04:09:19;;;;;;;5.45;4.95;;;19.10;56.00;;;;;;4951505;28;88571;-85
2022/01/11 04:11:45;;;;;;;5.82;5.22;;;19.10;56.10;;;;;;4950098;28;87512;-80
2022/01/11 04:14:11;;;;;;;5.22;4.72;;;19.10;56.10;;;;;;4950201;28;86946;-83
2022/01/11 04:16:36;;;;;;;6.50;5.07;;;19.00;56.00;;;;;;4951235;28;88383;-80
2022/01/11 04:19:02;;;;;;;6.38;5.53;;;19.00;56.00;;;;;;4951736;28;87886;-80
2022/01/11 04:21:28;;;;;;;5.80;5.30;;;19.00;55.80;;;;;;4951513;28;87706;-81
2022/01/11 04:23:59;;;;;;;6.22;5.30;;;19.00;55.80;;;;;;4951509;28;87098;-81
2022/01/11 04:26:27;;;;;;;5.30;4.80;;;19.00;55.80;;;;;;4950783;28;87686;-80
2022/01/11 04:28:52;;;;;;;5.78;5.18;;;19.00;55.80;;;;;;4951239;28;87846;-79
2022/01/11 04:31:18;;;;;;;6.03;5.13;;;19.00;55.70;;;;;;4951092;28;88165;-80
2022/01/11 04:33:44;;;;;;;5.43;4.93;;;19.00;55.80;;;;;;4951165;28;87293;-83
2022/01/11 04:36:11;;;;;;;5.60;5.10;;;19.00;55.70;;;;;;4951007;28;87762;-81
2022/01/11 04:38:36;;;;;;;5.78;4.93;;;19.00;55.80;;;;;;4951553;28;87663;-83
2022/01/11 04:41:02;;;;;;;5.45;4.95;;;18.90;55.70;;;;;;4951616;28;87022;-82
2022/01/11 04:43:30;;;;;;;5.28;4.78;;;19.00;55.70;;;;;;4951831;28;87778;-81
2022/01/11 04:45:56;;;;;;;5.53;5.03;;;19.00;55.80;;;;;;4950738;28;88266;-84
2022/01/11 04:48:22;;;;;;;5.85;5.25;;;18.90;55.70;;;;;;4951100;28;87690;-83
2022/01/11 04:50:48;;;;;;;5.78;5.13;;;18.90;55.70;;;;;;4933441;28;87374;-83
2022/01/11 04:53:14;;;;;;;5.78;5.07;;;18.90;55.80;;;;;;4951164;28;87169;-81
2022/01/11 04:55:40;;;;;;;6.03;5.32;;;18.90;55.70;;;;;;4949834;28;88758;-84
2022/01/11 04:58:06;;;;;;;5.40;4.85;;;18.90;55.70;;;;;;4949636;28;89437;-79
2022/01/11 05:00:31;;;;;;;5.32;4.82;;;18.90;55.60;;;;;;4951107;28;87843;-80
2022/01/11 05:02:59;;;;;;;5.07;4.65;;;18.90;55.70;;;;;;4951042;28;87431;-81
2022/01/11 05:05:26;;;;;;;5.10;4.60;;;18.90;55.70;;;;;;4949301;28;87600;-82
2022/01/11 05:07:52;;;;;;;6.40;5.35;;;18.90;55.60;;;;;;4950157;28;88270;-81
2022/01/11 05:10:20;;;;;;;5.00;4.55;;;18.90;55.50;;;;;;4950576;28;87924;-80
2022/01/11 05:12:46;;;;;;;5.30;4.80;;;18.90;55.60;;;;;;4933164;28;90111;-82
2022/01/11 05:15:13;;;;;;;5.68;5.07;;;18.90;55.50;;;;;;4951280;28;87574;-82
2022/01/11 05:17:40;;;;;;;5.45;4.95;;;18.90;55.60;;;;;;4949931;28;87678;-83
2022/01/11 05:20:07;;;;;;;6.05;5.35;;;18.90;55.40;;;;;;4950257;28;88791;-81
2022/01/11 05:22:34;;;;;;;5.50;5.00;;;18.90;55.50;;;;;;4950465;28;87992;-84
2022/01/11 05:24:59;;;;;;;5.57;4.88;;;18.80;55.30;;;;;;4950492;28;87830;-81
2022/01/11 05:27:27;;;;;;;5.90;5.30;;;18.90;55.40;;;;;;4950609;28;87614;-86
2022/01/11 05:29:54;;;;;;;5.28;4.78;;;18.80;55.50;;;;;;4950872;28;87546;-85
2022/01/11 05:32:20;;;;;;;6.15;5.10;;;18.80;55.30;;;;;;4949977;28;86924;-84
2022/01/11 05:34:45;;;;;;;5.78;5.15;;;18.80;55.30;;;;;;4949403;28;90257;-88
2022/01/11 05:37:11;;;;;;;5.78;5.18;;;18.80;55.30;;;;;;4932431;28;88215;-85
2022/01/11 05:39:37;;;;;;;5.50;4.97;;;18.80;55.30;;;;;;4950580;28;86869;-87
2022/01/11 05:42:06;;;;;;;5.38;4.88;;;18.80;55.30;;;;;;4950754;28;87813;-83
2022/01/11 05:44:33;;;;;;;5.50;5.00;;;18.80;55.30;;;;;;4949429;28;88737;-82
2022/01/11 05:46:58;;;;;;;5.38;4.88;;;18.80;55.30;;;;;;4949298;28;89452;-78
2022/01/11 05:49:24;;;;;;;5.35;4.85;;;18.80;55.30;;;;;;4949675;28;87878;-81
2022/01/11 05:52:02;;;;;;;5.60;5.10;;;18.80;55.40;;;;;;4950284;28;87500;-80
2022/01/11 05:54:28;;;;;;;5.68;5.18;;;18.80;55.30;;;;;;4949136;28;88035;-80
2022/01/11 05:56:54;;;;;;;5.50;5.00;;;18.80;55.30;;;;;;4950181;28;87194;-86
2022/01/11 05:59:19;;;;;;;5.57;5.07;;;18.70;55.20;;;;;;4950331;28;87774;-81
2022/01/11 06:01:45;;;;;;;5.35;4.85;;;18.70;55.20;;;;;;4949900;28;86947;-81
2022/01/11 06:04:11;;;;;;;4.80;4.40;;;18.70;55.20;;;;;;4949685;28;88372;-83
2022/01/11 06:06:36;;;;;;;4.97;4.57;;;18.70;55.30;;;;;;4948898;28;87697;-82
2022/01/11 06:09:03;;;;;;;5.07;4.63;;;18.70;55.20;;;;;;4950291;28;88584;-81
2022/01/11 06:11:30;;;;;;;4.80;4.40;;;18.70;55.20;;;;;;4953912;28;87800;-80
2022/01/11 06:13:56;;;;;;;4.95;4.55;;;18.70;55.20;;;;;;4935942;28;90476;-81
2022/01/11 06:16:22;;;;;;;5.05;4.60;;;18.70;55.10;;;;;;4934657;28;89272;-83
2022/01/11 06:18:48;;;;;;;5.57;5.07;;;18.70;55.20;;;;;;4953175;28;87345;-81
2022/01/11 06:21:14;;;;;;;5.35;4.85;;;18.70;55.10;;;;;;4952842;28;87454;-81
2022/01/11 06:23:40;;;;;;;5.80;5.20;;;18.60;55.10;;;;;;4953180;28;88128;-80
2022/01/11 06:26:06;;;;;;;5.55;5.05;;;18.60;55.10;;;;;;4953300;28;87424;-84
2022/01/11 06:28:32;;;;;;;5.43;4.93;;;18.60;55.20;;;;;;4953467;28;87308;-83
2022/01/11 06:30:57;;;;;;;5.95;5.25;;;18.60;55.10;;;;;;4953928;28;87860;-81
2022/01/11 06:33:23;;;;;;;5.20;4.70;;;18.60;55.00;;;;;;4952213;28;89104;-81
2022/01/11 06:35:51;;;;;;;5.20;4.70;;;18.60;55.20;;;;;;4952430;28;88358;-83
2022/01/11 06:38:26;;;;;;;5.63;4.78;;;18.60;55.10;;;;;;4952052;28;87386;-81
2022/01/11 06:40:52;;;;;;;5.60;5.10;;;18.60;55.00;;;;;;4952309;28;87727;-81
2022/01/11 06:43:17;;;;;;;4.70;4.20;;;18.60;55.10;;;;;;4934581;28;91258;-80
2022/01/11 06:45:43;;;;;;;5.97;5.38;;;18.60;55.20;;;;;;4952064;28;88089;-80
2022/01/11 06:48:10;;;;;;;5.25;4.60;;;18.60;54.90;;;;;;4952850;28;87453;-84
2022/01/11 06:50:36;;;;;;;5.57;5.00;;;18.60;54.80;;;;;;4953049;28;86729;-81
2022/01/11 06:53:02;;;;;;;5.35;4.70;;;18.70;54.80;;;;;;4952673;28;87833;-80
2022/01/11 06:55:28;;;;;;;5.43;4.70;;;18.70;54.60;;;;;;4952843;28;87518;-79
2022/01/11 06:57:54;;;;;;;6.18;5.03;;;18.70;54.50;;;;;;4952192;28;88965;-82
2022/01/11 07:00:20;;;;;;;5.00;4.53;;;18.70;54.60;;;;;;4952783;28;87969;-85
2022/01/11 07:02:49;;;;;;;8.75;5.22;;;18.80;54.90;;;;;;4952064;28;88134;-83
2022/01/11 07:05:15;;;;;;;;;;;18.90;54.90;;;;;;4953138;28;87911;-86
2022/01/11 07:07:41;;;;;;;5.13;4.63;;;18.90;55.20;;;;;;4953736;28;87129;-80
2022/01/11 07:10:07;;;;;;;5.22;4.65;;;19.00;55.20;;;;;;4952384;28;87570;-86
2022/01/11 07:12:32;;;;;;;6.53;5.57;;;19.00;55.40;;;;;;4951867;28;88078;-80
2022/01/11 07:14:58;;;;;;;8.50;5.85;;;19.10;55.50;;;;;;4950801;28;90470;-82
2022/01/11 07:17:25;;;;;;;7.25;6.50;;;19.10;53.70;;;;;;4951697;28;87421;-80
2022/01/11 07:20:00;;;;;;;6.38;5.78;;;19.20;52.70;;;;;;4952214;28;87593;-80
2022/01/11 07:22:26;;;;;;;7.13;5.75;;;19.20;52.90;;;;;;4951461;28;88679;-80
2022/01/11 07:24:52;;;;;;;7.88;5.95;;;19.20;52.70;;;;;;4952188;28;88080;-80
2022/01/11 07:27:17;;;;;;;7.57;6.40;;;19.20;52.00;;;;;;4952558;28;87917;-81
2022/01/11 07:29:43;;;;;;;7.60;6.88;;;19.20;51.60;;;;;;4952164;28;87689;-79
2022/01/11 07:32:09;;;;;;;7.57;6.80;;;19.20;50.50;;;;;;4950967;28;87537;-82
2022/01/11 07:34:35;;;;;;;6.50;5.90;;;19.20;50.90;;;;;;4950994;28;87578;-79
2022/01/11 07:37:00;;;;;;;6.63;5.10;;;19.20;52.20;;;;;;4952150;28;87887;-80
2022/01/11 07:39:26;;;;;;;7.50;5.30;;;19.20;52.70;;;;;;4952454;28;87163;-79
2022/01/11 07:41:52;;;;;;;9.45;5.30;;;19.20;52.80;;;;;;4950891;28;90692;-83
2022/01/11 07:44:17;;;;;;;10.02;6.18;;;19.20;53.00;;;;;;4955026;28;87833;-82
2022/01/11 07:46:44;;;;;;;6.60;5.20;;;19.20;53.00;;;;;;4950721;28;88554;-81
2022/01/11 07:49:10;;;;;;;5.78;5.07;;;19.20;53.30;;;;;;4949868;28;87983;-83
2022/01/11 07:51:36;;;;;;;7.80;5.47;;;19.20;53.40;;;;;;4952300;28;87778;-82
2022/01/11 07:54:03;;;;;;;6.50;5.22;;;19.20;53.70;;;;;;4951977;28;88033;-78
2022/01/11 07:56:28;;;;;;;7.40;5.90;;;19.30;53.70;;;;;;4954621;28;87943;-80
2022/01/11 07:58:54;;;;;;;6.40;4.63;;;19.30;53.40;;;;;;4950744;28;87637;-80
2022/01/11 08:01:19;;;;;;;7.13;5.03;;;19.30;54.20;;;;;;4942365;28;88915;-79
2022/01/11 08:03:55;;;;;;;6.25;4.90;;;19.40;53.60;;;;;;4949827;28;86992;-81
2022/01/11 08:06:20;;;;;;;7.18;5.00;;;19.40;53.60;;;;;;4949566;28;87929;-80
2022/01/11 08:08:46;;;;;;;5.53;5.00;;;19.40;53.80;;;;;;4950413;28;86984;-80
2022/01/11 08:11:12;;;;;;;7.32;5.13;;;19.40;53.60;;;;;;4949844;28;88612;-79
2022/01/11 08:13:39;;;;;;;5.43;4.80;;;19.40;53.90;;;;;;4951673;28;88007;-79
2022/01/11 08:16:05;;;;;;;7.18;5.60;;;19.40;53.50;;;;;;4950493;28;87423;-79
2022/01/11 08:18:30;;;;;;;5.57;4.97;;;19.50;53.60;;;;;;4951711;28;87677;-80
2022/01/11 08:20:56;;;;;;;9.73;5.45;;;19.50;53.60;;;;;;4881779;28;90581;-79
2022/01/11 08:23:21;;;;;;;7.60;5.05;;;19.50;53.90;;;;;;4950863;28;88102;-79
2022/01/11 08:25:47;;;;;;;5.38;4.88;;;19.50;53.60;;;;;;4950860;28;88089;-82
2022/01/11 08:28:13;;;;;;;7.00;5.03;;;19.50;53.50;;;;;;4932952;28;87534;-81
2022/01/11 08:30:40;;;;;;;6.78;5.28;;;19.50;53.60;;;;;;4950528;28;88335;-81
2022/01/11 08:33:06;;;;;;;5.10;4.60;;;19.50;53.80;;;;;;4951137;28;89379;-85
2022/01/11 08:35:32;;;;;;;5.47;4.57;;;19.60;54.50;;;;;;4950258;28;88512;-80
2022/01/11 08:37:58;;;;;;;5.95;4.90;;;19.50;54.10;;;;;;4950032;28;88159;-81
2022/01/11 08:40:25;;;;;;;4.78;4.25;;;19.50;54.00;;;;;;4950245;28;88003;-79
2022/01/11 08:42:52;;;;;;;5.22;4.72;;;19.60;54.20;;;;;;4951400;28;87941;-78
2022/01/11 08:45:25;;;;;;;6.03;4.75;;;19.60;54.50;;;;;;4934170;28;87238;-79
2022/01/11 08:47:52;;;;;;;4.95;4.43;;;19.60;54.50;;;;;;4950831;28;87911;-79
2022/01/11 08:50:18;;;;;;;5.30;3.83;;;19.60;54.50;;;;;;4950531;28;88031;-80
2022/01/11 08:52:45;;;;;;;5.45;4.88;;;19.60;54.70;;;;;;4949644;28;87110;-79
2022/01/11 08:55:12;;;;;;;4.80;4.18;;;19.70;54.30;;;;;;4949764;28;87924;-78
2022/01/11 08:57:38;;;;;;;5.50;4.55;;;19.70;54.50;;;;;;4942715;28;88175;-79
2022/01/11 09:00:10;;;;;;;5.07;4.57;;;19.70;54.00;;;;;;4946236;28;88715;-78
2022/01/11 09:02:37;;;;;;;5.80;4.80;;;19.70;53.40;;;;;;4949402;28;88423;-80
2022/01/11 09:05:03;;;;;;;6.10;4.80;;;19.70;53.70;;;;;;4949845;28;87399;-79
2022/01/11 09:07:29;;;;;;;5.85;5.25;;;19.70;54.20;;;;;;4948145;28;87874;-79
2022/01/11 09:09:55;;;;;;;8.30;4.88;;;19.70;53.30;;;;;;4949820;28;87855;-79
2022/01/11 09:12:20;;;;;;;5.15;4.65;;;19.70;53.60;;;;;;4949979;28;88172;-80
2022/01/11 09:14:47;;;;;;;5.13;4.57;;;19.70;53.60;;;;;;4932528;28;87431;-80
2022/01/11 09:17:12;;;;;;;4.68;3.78;;;19.70;53.70;;;;;;4948987;28;87207;-79
2022/01/11 09:19:39;;;;;;;6.25;4.70;;;19.70;54.30;;;;;;4948844;28;87740;-83
2022/01/11 09:22:10;;;;;;;4.63;4.07;;;19.70;53.60;;;;;;4949174;28;87547;-79
2022/01/11 09:24:36;;;;;;;5.53;4.38;;;19.70;54.10;;;;;;4949321;28;89098;-79
2022/01/11 09:27:04;;;;;;;4.65;4.25;;;19.70;54.80;;;;;;4948747;28;87195;-79
2022/01/11 09:29:36;;;;;;;4.28;3.88;;;19.80;54.50;;;;;;4949985;28;88065;-78
2022/01/11 09:32:05;;;;;;;4.50;4.07;;;19.80;54.80;;;;;;4949503;28;87706;-80
2022/01/11 09:34:31;;;;;;;7.47;4.28;;;19.80;54.70;;;;;;4950215;28;87943;-79
2022/01/11 09:36:56;;;;;;;4.80;4.13;;;19.80;54.80;;;;;;4946930;28;89458;-80
2022/01/11 09:39:23;;;;;;;4.78;3.75;;;19.80;54.70;;;;;;4948527;28;88536;-81
2022/01/11 09:41:49;;;;;;;4.13;3.72;;;19.90;55.00;;;;;;4931331;28;88816;-78
2022/01/11 09:44:15;;;;;;;4.55;3.58;;;19.90;54.90;;;;;;4948509;28;87728;-79
2022/01/11 09:46:41;;;;;;;4.30;3.88;;;19.90;54.90;;;;;;4947966;28;87307;-79
2022/01/11 09:49:07;;;;;;;4.80;4.30;;;19.90;54.90;;;;;;4947474;28;89481;-81
2022/01/11 09:51:36;;;;;;;6.00;3.78;;;19.90;54.70;;;;;;4948207;28;88195;-79
2022/01/11 09:54:02;;;;;;;4.15;3.55;;;19.90;54.60;;;;;;4835027;28;88502;-79
2022/01/11 09:56:38;;;;;;;4.90;3.90;;;19.90;54.30;;;;;;4948547;28;87958;-84
2022/01/11 09:59:06;;;;;;;7.15;3.80;;;19.90;54.20;;;;;;4918287;28;89225;-81
2022/01/11 10:01:32;;;;;;;5.93;4.53;;;20.00;53.50;;;;;;4927700;28;91542;-85
2022/01/11 10:04:11;;;;;;;4.95;4.13;;;20.00;53.10;;;;;;4946592;28;87537;-84
2022/01/11 10:06:41;;;;;;;7.03;4.07;;;19.90;53.80;;;;;;4948994;28;87782;-84
2022/01/11 10:09:07;;;;;;;5.47;4.07;;;19.90;54.20;;;;;;4948052;28;88118;-85
2022/01/11 10:11:39;;;;;;;5.55;3.83;;;19.90;54.30;;;;;;4947607;28;88392;-84
2022/01/11 10:14:35;;;;;;;4.43;3.25;;;19.90;54.60;;;;;;4947127;28;88386;-85
2022/01/11 10:17:21;;;;;;;8.30;4.38;;;19.90;54.60;;;;;;4941902;28;87463;-85
2022/01/11 10:20:07;;;;;;;4.80;4.10;;;19.90;54.40;;;;;;4946849;28;87659;-86
2022/01/11 10:22:33;;;;;;;6.20;4.22;;;19.90;54.20;;;;;;4948993;28;87696;-80
2022/01/11 10:25:07;;;;;;;6.07;4.53;;;19.90;54.40;;;;;;4927659;28;87477;-84
2022/01/11 10:27:35;;;;;;;7.65;4.25;;;19.90;54.10;;;;;;4943829;28;87158;-83
2022/01/11 10:30:17;;;;;;;6.72;3.97;;;19.90;54.40;;;;;;4947062;28;87632;-85
2022/01/11 10:32:48;;;;;;;6.53;4.00;;;19.90;54.20;;;;;;4946933;28;87416;-79
2022/01/11 10:35:27;;;;;;;6.43;3.78;;;20.00;54.40;;;;;;4947088;28;87220;-81
2022/01/11 10:37:54;;;;;;;6.00;3.80;;;19.90;54.70;;;;;;4946648;28;87311;-84
2022/01/11 10:40:36;;;;;;;5.57;4.00;;;20.00;54.80;;;;;;4946034;28;89173;-80
2022/01/11 10:43:15;;;;;;;6.13;4.97;;;20.00;54.00;;;;;;4945673;28;90444;-84
2022/01/11 10:45:47;;;;;;;4.93;4.35;;;19.90;50.70;;;;;;4947085;28;87737;-85
2022/01/11 10:48:15;;;;;;;7.30;4.63;;;19.90;52.00;;;;;;4946926;28;88022;-81
2022/01/11 10:50:56;;;;;;;8.18;4.07;;;19.90;53.20;;;;;;4947107;28;87916;-84
2022/01/11 10:53:23;;;;;;;6.80;4.07;;;20.00;53.80;;;;;;4946774;28;87826;-84
2022/01/11 10:55:54;;;;;;;7.45;4.45;;;20.00;53.80;;;;;;4948189;28;88010;-84
2022/01/11 10:58:22;;;;;;;6.18;5.05;;;20.00;53.40;;;;;;4951312;28;86626;-87
2022/01/11 11:00:50;;;;;;;13.82;4.88;;;20.00;53.10;;;;;;4950992;28;88085;-78
2022/01/11 11:03:18;;;;;;;7.47;4.80;;;20.00;53.50;;;;;;4951605;28;87258;-83
2022/01/11 11:05:49;;;;;;;7.33;5.00;;;20.00;54.00;;;;;;4949479;28;88744;-82
2022/01/11 11:08:20;;;;;;;11.02;5.60;;;20.00;54.80;;;;;;4951070;28;87849;-85
2022/01/11 11:10:57;;;;;;;7.30;5.03;;;20.00;55.10;;;;;;4950830;28;87792;-82
2022/01/11 11:13:31;;;;;;;10.88;4.93;;;20.00;55.40;;;;;;4951661;28;87480;-83
2022/01/11 11:16:10;;;;;;;9.80;5.45;;;20.00;55.50;;;;;;4949998;28;87333;-83
2022/01/11 11:18:42;;;;;;;8.15;4.97;;;20.00;56.90;;;;;;4951427;28;88100;-81
2022/01/11 11:21:31;;;;;;;8.13;5.13;;;20.00;57.20;;;;;;4950156;28;87827;-83
2022/01/11 11:24:03;;;;;;;9.23;5.30;;;20.00;56.90;;;;;;4951293;28;87424;-84
2022/01/11 11:26:33;;;;;;;11.05;5.80;;;20.00;58.30;;;;;;4951709;28;87034;-82
2022/01/11 11:28:59;;;;;;;10.73;5.38;;;20.10;58.70;;;;;;4950432;28;89996;-84
2022/01/11 11:31:25;;;;;;;6.38;5.03;;;20.10;58.10;;;;;;4951561;28;88623;-86
2022/01/11 11:34:00;;;;;;;8.65;4.75;;;20.10;58.30;;;;;;4951894;28;88110;-83
2022/01/11 11:36:26;;;;;;;7.32;5.32;;;20.10;57.80;;;;;;4951076;28;87926;-80
2022/01/11 11:39:00;;;;;;;7.70;5.30;;;20.10;58.00;;;;;;4952141;28;86940;-82
2022/01/11 11:41:27;;;;;;;13.30;7.18;;;20.10;57.40;;;;;;4951195;28;88043;-82
2022/01/11 11:44:05;;;;;;;14.48;6.68;;;20.10;58.30;;;;;;4951239;28;87511;-81
2022/01/11 11:47:01;;;;;;;12.57;7.65;;;20.10;59.20;;;;;;4950570;28;87327;-83
2022/01/11 11:49:50;;;;;;;14.88;6.85;;;20.10;60.20;;;;;;4952321;28;86264;-82
2022/01/11 11:52:42;;;;;;;14.18;6.32;;;20.10;59.90;;;;;;4951380;28;87613;-82
2022/01/11 11:55:27;;;;;;;8.55;5.07;;;20.10;59.50;;;;;;4951025;28;87863;-83
2022/01/11 11:57:55;;;;;;;10.32;5.18;;;20.10;59.20;;;;;;4950042;28;88879;-84
2022/01/11 12:00:24;;;;;;;11.43;5.70;;;20.10;59.00;;;;;;4946936;28;88081;-81
2022/01/11 12:02:58;;;;;;;15.35;6.43;;;20.10;58.90;;;;;;4948076;28;88510;-80
2022/01/11 12:05:39;;;;;;;9.32;4.93;;;20.10;58.80;;;;;;4947463;28;87604;-83
2022/01/11 12:08:36;;;;;;;11.23;5.70;;;20.10;58.90;;;;;;4948253;28;88076;-81
2022/01/11 12:11:05;;;;;;;8.48;4.78;;;20.10;59.30;;;;;;4948307;28;87786;-81
2022/01/11 12:13:45;;;;;;;11.63;5.30;;;20.10;59.00;;;;;;4935520;28;90015;-80
2022/01/11 12:16:26;;;;;;;;;;;20.10;59.10;;;;;;4929476;28;90121;-80
2022/01/11 12:19:03;;;;;;;10.57;4.97;;;20.10;59.30;;;;;;4931261;28;87026;-82
2022/01/11 12:21:38;;;;;;;7.43;4.68;;;20.10;59.00;;;;;;4947557;28;87948;-83
2022/01/11 12:24:04;;;;;;;6.65;4.70;;;20.10;58.80;;;;;;4949154;28;89311;-86
2022/01/11 12:26:34;;;;;;;9.10;5.30;;;20.10;59.00;;;;;;4947798;28;89242;-85
2022/01/11 12:29:02;;;;;;;6.68;4.63;;;20.10;58.90;;;;;;4948890;28;87434;-84
2022/01/11 12:31:33;;;;;;;7.83;5.13;;;20.10;58.70;;;;;;4947611;28;88146;-83
2022/01/11 12:34:01;;;;;;;10.65;4.70;;;20.10;58.60;;;;;;4947405;28;88037;-83
2022/01/11 12:36:52;;;;;;;6.80;4.78;;;20.10;58.70;;;;;;4948801;28;87339;-79
2022/01/11 12:39:17;;;;;;;10.45;4.55;;;20.10;58.60;;;;;;4949225;28;88161;-82
2022/01/11 12:41:43;;;;;;;7.35;4.90;;;20.10;58.70;;;;;;4948661;28;86502;-83
2022/01/11 12:44:20;;;;;;;7.03;4.22;;;20.10;58.70;;;;;;4947418;28;87929;-85
2022/01/11 12:46:54;;;;;;;7.50;5.15;;;20.10;58.80;;;;;;4931013;28;89784;-85
2022/01/11 12:49:22;;;;;;;7.78;4.85;;;20.10;58.80;;;;;;4948806;28;88379;-82
2022/01/11 12:52:09;;;;;;;9.57;4.47;;;20.10;58.80;;;;;;4948378;28;88187;-85
2022/01/11 12:54:49;;;;;;;6.40;4.55;;;20.20;58.90;;;;;;4949607;28;87782;-81